Time;durP1;ratioP1;P1;durP2;ratioP2;P2;SDS_P1;SDS_P2;PMS_P1;PMS_P2;Temp;Humidity;BMP_temperature;BMP_pressure;BME280_temperature;BME280_humidity;BME280_pressure;Samples;Min_cycle;Max_cycle;Signal;HPM_P1;HPM_P2
2022/07/31 00:02:29;;;;;;;7.80;4.97;;;16.60;99.90;;;;;;5101424;27;20218;-72
2022/07/31 00:05:17;;;;;;;7.75;5.35;;;16.60;99.90;;;;;;5100023;27;20207;-74
2022/07/31 00:08:06;;;;;;;7.35;5.47;;;16.60;99.90;;;;;;5100672;27;20210;-73
2022/07/31 00:10:56;;;;;;;6.55;5.50;;;16.60;99.90;;;;;;5100611;27;20231;-73
2022/07/31 00:13:45;;;;;;;10.27;5.45;;;16.50;99.90;;;;;;5099039;27;20595;-72
2022/07/31 00:16:45;;;;;;;8.77;5.47;;;16.60;99.90;;;;;;5121252;27;20220;-72
2022/07/31 00:19:34;;;;;;;7.50;5.80;;;16.60;99.90;;;;;;5099476;27;20236;-73
2022/07/31 00:22:22;;;;;;;11.73;5.57;;;16.60;99.90;;;;;;5092969;28;20213;-73
2022/07/31 00:25:12;;;;;;;9.15;5.85;;;16.60;99.90;;;;;;5096916;28;20230;-73
2022/07/31 00:28:02;;;;;;;7.47;5.38;;;16.60;99.90;;;;;;5099489;27;20304;-73
2022/07/31 00:30:51;;;;;;;7.43;4.82;;;16.50;99.90;;;;;;5100554;27;20718;-74
2022/07/31 00:33:39;;;;;;;9.25;5.80;;;16.50;99.90;;;;;;5094701;28;20231;-74
2022/07/31 00:36:28;;;;;;;9.30;5.70;;;16.60;99.90;;;;;;5093205;27;20567;-73
2022/07/31 00:39:20;;;;;;;6.28;5.30;;;16.60;99.90;;;;;;5097413;27;20379;-73
2022/07/31 00:42:17;;;;;;;9.48;5.65;;;16.60;99.90;;;;;;5104065;27;20555;-73
2022/07/31 00:45:09;;;;;;;7.60;5.40;;;16.60;99.90;;;;;;5095219;28;20219;-73
2022/07/31 00:48:02;;;;;;;8.35;5.53;;;16.50;99.90;;;;;;5098953;27;21458;-74
2022/07/31 00:50:52;;;;;;;8.30;5.55;;;16.60;99.90;;;;;;5106325;27;20207;-72
2022/07/31 00:53:40;;;;;;;6.78;5.65;;;16.60;99.90;;;;;;5103994;27;20223;-73
2022/07/31 00:56:29;;;;;;;7.57;5.82;;;16.60;99.90;;;;;;5112333;27;20599;-74
2022/07/31 00:59:18;;;;;;;8.35;5.43;;;16.60;99.90;;;;;;5101017;27;20210;-72
2022/07/31 01:02:14;;;;;;;9.88;5.43;;;16.60;99.90;;;;;;5088292;28;20214;-73
2022/07/31 01:05:03;;;;;;;8.55;5.68;;;16.60;99.90;;;;;;5098576;28;20599;-74
2022/07/31 01:07:52;;;;;;;7.15;5.82;;;16.60;99.90;;;;;;5092129;28;20699;-72
2022/07/31 01:10:54;;;;;;;6.95;5.25;;;16.60;99.90;;;;;;5098838;28;20223;-74
2022/07/31 01:13:49;;;;;;;10.57;5.70;;;16.50;99.90;;;;;;5100812;28;20224;-73
2022/07/31 01:16:42;;;;;;;8.40;4.60;;;16.50;99.90;;;;;;5101055;28;20218;-74
2022/07/31 01:19:39;;;;;;;7.03;5.18;;;16.50;99.90;;;;;;5098888;28;20346;-74
2022/07/31 01:22:52;;;;;;;8.65;4.80;;;16.60;99.90;;;;;;5095247;28;20279;-72
2022/07/31 01:25:54;;;;;;;7.25;4.72;;;16.50;99.90;;;;;;5101096;28;20225;-73
2022/07/31 01:29:03;;;;;;;6.18;4.68;;;16.60;99.90;;;;;;5115491;27;20839;-73
2022/07/31 01:31:57;;;;;;;9.20;5.35;;;16.50;99.90;;;;;;5101677;28;20226;-74
2022/07/31 01:34:50;;;;;;;9.70;5.20;;;16.60;99.90;;;;;;5104105;27;20227;-74
2022/07/31 01:37:43;;;;;;;6.32;4.63;;;16.60;99.90;;;;;;5097803;28;20743;-73
2022/07/31 01:40:35;;;;;;;6.97;4.85;;;16.50;99.90;;;;;;5093894;28;20643;-73
2022/07/31 01:43:29;;;;;;;8.35;4.90;;;16.50;99.90;;;;;;5096750;28;20207;-73
2022/07/31 01:46:21;;;;;;;9.50;5.10;;;16.50;99.90;;;;;;5109812;27;20298;-72
2022/07/31 01:49:12;;;;;;;6.68;4.75;;;16.50;99.90;;;;;;5101496;28;20221;-72
2022/07/31 01:52:04;;;;;;;11.57;4.78;;;16.50;99.90;;;;;;5101212;28;20229;-72
2022/07/31 01:54:55;;;;;;;8.15;4.88;;;16.50;99.90;;;;;;5099169;27;20391;-72
2022/07/31 01:57:47;;;;;;;8.95;5.00;;;16.50;99.90;;;;;;5120626;27;20227;-72
2022/07/31 02:00:37;;;;;;;6.93;4.93;;;16.50;99.90;;;;;;5098720;28;20240;-73
2022/07/31 02:03:31;;;;;;;12.52;6.07;;;16.40;99.90;;;;;;5093735;28;20218;-72
2022/07/31 02:06:35;;;;;;;8.25;5.45;;;16.30;99.90;;;;;;5103743;27;20231;-72
2022/07/31 02:09:24;;;;;;;9.38;5.75;;;16.20;99.90;;;;;;5110256;27;20713;-74
2022/07/31 02:12:14;;;;;;;11.02;6.10;;;16.20;99.90;;;;;;5103640;27;20317;-72
2022/07/31 02:15:06;;;;;;;7.40;5.85;;;16.20;99.90;;;;;;5100859;27;20215;-73
2022/07/31 02:17:57;;;;;;;8.93;6.20;;;16.20;99.90;;;;;;5103124;27;20219;-73
2022/07/31 02:21:07;;;;;;;10.45;6.80;;;16.20;99.90;;;;;;5105157;27;21373;-72
2022/07/31 02:23:57;;;;;;;11.93;6.38;;;16.20;99.90;;;;;;5097602;28;20238;-72
2022/07/31 02:26:47;;;;;;;10.50;6.57;;;16.20;99.90;;;;;;5124084;27;20718;-73
2022/07/31 02:29:37;;;;;;;15.25;7.40;;;16.10;99.90;;;;;;5099741;28;20222;-73
2022/07/31 02:32:26;;;;;;;8.23;6.97;;;16.20;99.90;;;;;;5115341;27;20737;-73
2022/07/31 02:35:21;;;;;;;11.60;7.50;;;16.10;99.90;;;;;;5097044;28;20879;-74
2022/07/31 02:38:12;;;;;;;9.13;6.55;;;16.10;99.90;;;;;;5101658;28;20226;-73
2022/07/31 02:41:12;;;;;;;9.52;7.60;;;16.10;99.90;;;;;;5106687;27;20252;-72
2022/07/31 02:44:01;;;;;;;10.30;7.05;;;16.10;99.90;;;;;;5101361;27;20219;-73
2022/07/31 02:46:50;;;;;;;10.38;6.80;;;16.10;99.90;;;;;;5100949;27;20222;-72
2022/07/31 02:49:39;;;;;;;8.73;7.57;;;16.00;99.90;;;;;;5101596;27;20707;-73
2022/07/31 02:52:29;;;;;;;15.75;6.93;;;16.00;99.90;;;;;;5109611;27;20231;-71
2022/07/31 02:55:19;;;;;;;8.13;6.57;;;16.10;99.90;;;;;;5102403;28;20224;-73
2022/07/31 02:58:08;;;;;;;11.63;7.00;;;16.00;99.90;;;;;;5097835;28;20424;-72
2022/07/31 03:01:01;;;;;;;13.93;7.80;;;16.00;99.90;;;;;;5109803;27;20219;-72
2022/07/31 03:03:52;;;;;;;10.18;7.43;;;16.10;99.90;;;;;;5093757;28;20707;-72
2022/07/31 03:06:40;;;;;;;9.95;7.90;;;16.10;99.90;;;;;;5101643;28;20226;-73
2022/07/31 03:09:30;;;;;;;9.80;7.53;;;16.00;99.90;;;;;;5102624;27;20712;-73
2022/07/31 03:12:40;;;;;;;7.20;6.35;;;16.00;99.90;;;;;;5101977;27;20226;-73
2022/07/31 03:15:30;;;;;;;8.73;7.22;;;16.10;99.90;;;;;;5096696;27;20709;-73
2022/07/31 03:18:20;;;;;;;10.82;6.95;;;16.10;99.90;;;;;;5099846;28;20215;-72
2022/07/31 03:21:11;;;;;;;10.70;7.60;;;16.00;99.90;;;;;;5088962;27;20658;-73
2022/07/31 03:24:02;;;;;;;7.85;6.88;;;16.10;99.90;;;;;;5088961;27;20230;-73
2022/07/31 03:26:50;;;;;;;8.23;7.10;;;16.10;99.90;;;;;;5102638;27;20229;-73
2022/07/31 03:29:41;;;;;;;10.52;7.10;;;16.10;99.90;;;;;;5098416;27;20227;-72
2022/07/31 03:32:31;;;;;;;9.95;7.38;;;16.10;99.90;;;;;;5120573;27;20245;-73
2022/07/31 03:35:20;;;;;;;10.95;7.55;;;16.10;99.90;;;;;;5095305;27;20344;-73
2022/07/31 03:38:09;;;;;;;10.82;6.90;;;16.10;99.90;;;;;;5097425;28;20588;-72
2022/07/31 03:41:20;;;;;;;9.73;7.10;;;16.10;99.90;;;;;;5097774;28;20298;-73
2022/07/31 03:44:10;;;;;;;10.48;7.65;;;16.00;99.90;;;;;;5094491;27;20277;-73
2022/07/31 03:47:00;;;;;;;11.18;7.28;;;16.00;99.90;;;;;;5094973;28;20272;-73
2022/07/31 03:49:50;;;;;;;9.43;7.22;;;16.00;99.90;;;;;;5092578;27;20326;-73
2022/07/31 03:52:38;;;;;;;10.25;7.75;;;16.00;99.90;;;;;;5101848;27;20227;-73
2022/07/31 03:55:29;;;;;;;11.88;7.90;;;16.10;99.90;;;;;;5097581;27;20219;-73
2022/07/31 03:58:19;;;;;;;22.98;16.02;;;16.10;99.90;;;;;;5088246;27;21095;-72
2022/07/31 04:01:11;;;;;;;11.55;9.23;;;16.10;99.90;;;;;;5099872;28;20242;-73
2022/07/31 04:04:01;;;;;;;13.88;8.95;;;16.20;99.90;;;;;;5100988;27;20595;-73
2022/07/31 04:07:09;;;;;;;10.02;7.68;;;16.20;99.90;;;;;;5100942;28;20358;-72
2022/07/31 04:09:58;;;;;;;8.32;7.50;;;16.20;99.90;;;;;;5096139;28;20225;-73
2022/07/31 04:12:46;;;;;;;9.98;8.68;;;16.10;99.90;;;;;;5099795;27;20627;-73
2022/07/31 04:15:37;;;;;;;13.23;8.40;;;16.20;99.90;;;;;;5096320;27;20242;-73
2022/07/31 04:18:26;;;;;;;8.93;7.90;;;16.10;99.90;;;;;;5125562;27;20215;-73
2022/07/31 04:21:16;;;;;;;11.57;8.68;;;16.20;99.90;;;;;;5092570;28;20372;-74
2022/07/31 04:24:06;;;;;;;12.55;7.75;;;16.20;99.90;;;;;;5122832;27;20218;-73
2022/07/31 04:27:21;;;;;;;8.38;7.53;;;16.20;99.90;;;;;;5086797;27;20322;-72
2022/07/31 04:30:10;;;;;;;9.43;8.05;;;16.20;99.90;;;;;;5091826;27;20219;-71
2022/07/31 04:32:59;;;;;;;8.90;7.57;;;16.10;99.90;;;;;;5096895;27;20222;-72
2022/07/31 04:35:48;;;;;;;9.73;8.73;;;16.20;99.90;;;;;;5096149;27;20218;-72
2022/07/31 04:38:38;;;;;;;10.68;8.77;;;16.30;99.90;;;;;;5082781;28;20319;-73
2022/07/31 04:41:28;;;;;;;13.32;8.52;;;16.40;99.90;;;;;;5104157;27;20237;-72
2022/07/31 04:44:17;;;;;;;10.30;7.40;;;16.30;99.90;;;;;;5099687;28;20211;-73
2022/07/31 04:47:19;;;;;;;9.00;7.00;;;16.20;99.90;;;;;;5092548;28;21066;-73
2022/07/31 04:50:10;;;;;;;7.82;7.13;;;16.20;99.90;;;;;;5087829;28;20223;-73
2022/07/31 04:53:14;;;;;;;8.13;6.78;;;16.30;99.90;;;;;;5093118;28;20578;-75
2022/07/31 04:59:13;;;;;;;7.00;5.95;;;16.30;99.90;;;;;;5101468;27;20227;-73
2022/07/31 05:02:05;;;;;;;9.20;6.70;;;16.30;99.90;;;;;;5093984;28;20219;-73
2022/07/31 05:04:55;;;;;;;7.25;5.93;;;16.30;99.90;;;;;;5096528;28;20786;-73
2022/07/31 05:07:50;;;;;;;5.85;5.32;;;16.30;99.90;;;;;;5088915;28;20242;-73
2022/07/31 05:13:50;;;;;;;5.70;5.20;;;16.30;99.90;;;;;;5092238;28;20226;-73
2022/07/31 05:16:39;;;;;;;5.80;5.20;;;16.30;99.90;;;;;;5098668;28;20219;-73
2022/07/31 05:19:28;;;;;;;5.15;4.65;;;16.30;99.90;;;;;;5110087;27;20304;-73
2022/07/31 05:22:35;;;;;;;5.15;4.43;;;16.40;99.90;;;;;;5098932;28;20287;-73
2022/07/31 05:25:43;;;;;;;5.05;4.55;;;16.30;99.90;;;;;;5099726;28;20598;-73
2022/07/31 05:28:32;;;;;;;4.72;4.30;;;16.40;99.90;;;;;;5101971;28;20226;-74
2022/07/31 05:31:22;;;;;;;3.90;3.60;;;16.30;99.90;;;;;;5098627;28;20218;-73
2022/07/31 05:34:11;;;;;;;4.00;3.70;;;16.30;99.90;;;;;;5110459;27;20219;-73
2022/07/31 05:37:00;;;;;;;4.45;4.05;;;16.30;99.90;;;;;;5096437;28;20286;-73
2022/07/31 05:39:51;;;;;;;4.07;3.78;;;16.30;99.90;;;;;;5113734;27;20226;-73
2022/07/31 05:42:58;;;;;;;4.47;3.50;;;16.30;99.90;;;;;;5090536;28;20635;-73
2022/07/31 05:46:12;;;;;;;3.78;3.47;;;16.30;99.90;;;;;;5103779;27;20253;-73
2022/07/31 05:49:03;;;;;;;4.20;3.80;;;16.40;99.90;;;;;;5101741;27;20215;-73
2022/07/31 05:51:53;;;;;;;4.28;3.88;;;16.40;99.90;;;;;;5099398;27;20572;-74
2022/07/31 05:54:44;;;;;;;3.75;3.45;;;16.40;99.90;;;;;;5097259;27;20779;-73
2022/07/31 05:57:52;;;;;;;4.57;3.67;;;16.40;99.90;;;;;;5103980;27;20218;-73
2022/07/31 06:00:41;;;;;;;4.15;3.75;;;16.40;99.90;;;;;;5108491;27;20227;-72
2022/07/31 06:03:34;;;;;;;5.60;3.38;;;16.30;99.90;;;;;;5112473;27;20218;-73
2022/07/31 06:07:00;;;;;;;3.75;3.45;;;16.30;99.90;;;;;;5105098;27;20714;-73
2022/07/31 06:09:48;;;;;;;3.75;3.45;;;16.30;99.90;;;;;;5113925;27;20238;-72
2022/07/31 06:12:37;;;;;;;4.15;3.30;;;16.30;99.90;;;;;;5106971;27;20635;-73
2022/07/31 06:15:26;;;;;;;3.60;3.30;;;16.20;99.90;;;;;;5125527;27;20219;-73
2022/07/31 06:18:15;;;;;;;5.53;4.00;;;16.30;99.90;;;;;;5090498;28;20301;-70
2022/07/31 06:21:04;;;;;;;5.13;3.67;;;16.30;99.90;;;;;;5117677;27;20231;-72
2022/07/31 06:23:54;;;;;;;3.65;3.35;;;16.30;99.90;;;;;;5114293;27;20233;-71
2022/07/31 06:26:49;;;;;;;4.05;3.50;;;16.30;99.90;;;;;;5117582;27;20231;-73
2022/07/31 06:29:38;;;;;;;4.43;3.75;;;16.20;99.90;;;;;;5103039;27;20610;-73
2022/07/31 06:32:30;;;;;;;3.85;3.30;;;16.20;99.90;;;;;;5101705;27;20242;-73
2022/07/31 06:35:19;;;;;;;4.13;3.80;;;16.20;99.90;;;;;;5105366;27;20254;-74
2022/07/31 06:38:29;;;;;;;3.67;3.33;;;16.20;99.90;;;;;;5100142;27;20210;-73
2022/07/31 06:41:46;;;;;;;3.60;3.30;;;16.20;99.90;;;;;;5102042;27;20235;-73
2022/07/31 06:44:51;;;;;;;3.90;3.60;;;16.20;99.90;;;;;;5103130;27;20286;-73
2022/07/31 06:48:13;;;;;;;5.28;3.55;;;16.30;99.90;;;;;;5098111;27;20249;-73
2022/07/31 06:51:06;;;;;;;3.53;3.22;;;16.30;99.90;;;;;;5101452;27;20263;-73
2022/07/31 06:54:15;;;;;;;3.30;3.00;;;16.20;99.90;;;;;;5095381;27;20921;-74
2022/07/31 06:57:05;;;;;;;3.63;3.33;;;16.20;99.90;;;;;;5122934;27;20229;-73
2022/07/31 06:59:55;;;;;;;3.50;3.20;;;16.30;99.90;;;;;;5098980;27;20253;-73
2022/07/31 07:02:44;;;;;;;4.68;3.55;;;16.20;99.90;;;;;;5101253;27;20223;-72
2022/07/31 07:05:32;;;;;;;4.03;3.45;;;16.30;99.90;;;;;;5098668;28;20219;-73
2022/07/31 07:08:22;;;;;;;3.88;3.58;;;16.30;99.90;;;;;;5098796;28;20230;-71
2022/07/31 07:11:11;;;;;;;4.28;3.70;;;16.30;99.90;;;;;;5093347;28;20227;-71
2022/07/31 07:14:05;;;;;;;5.28;4.20;;;16.30;99.90;;;;;;5099235;28;20216;-73
2022/07/31 07:16:54;;;;;;;4.25;3.95;;;16.40;99.90;;;;;;5118990;27;20239;-72
2022/07/31 07:19:43;;;;;;;4.55;4.15;;;16.30;99.90;;;;;;5099699;27;20362;-73
2022/07/31 07:22:37;;;;;;;4.78;4.38;;;16.40;99.90;;;;;;5099650;27;20218;-73
2022/07/31 07:25:27;;;;;;;4.72;4.32;;;16.50;99.90;;;;;;5095530;27;20222;-73
2022/07/31 07:28:18;;;;;;;4.88;4.47;;;16.50;99.90;;;;;;5101673;27;20230;-73
2022/07/31 07:31:22;;;;;;;4.88;4.47;;;16.50;99.90;;;;;;5087561;27;20222;-73
2022/07/31 07:34:11;;;;;;;5.63;4.82;;;16.60;99.90;;;;;;5096481;27;20230;-73
2022/07/31 07:37:00;;;;;;;5.35;4.95;;;16.60;99.90;;;;;;5100358;28;20595;-72
2022/07/31 07:39:51;;;;;;;10.68;5.50;;;16.60;99.90;;;;;;5098568;28;20215;-73
2022/07/31 07:42:40;;;;;;;5.22;4.82;;;16.70;99.90;;;;;;5102160;27;20219;-72
2022/07/31 07:45:28;;;;;;;5.72;5.22;;;16.70;99.90;;;;;;5102186;27;20884;-73
2022/07/31 07:48:19;;;;;;;6.13;5.63;;;16.70;99.90;;;;;;5097371;27;20221;-73
2022/07/31 07:51:30;;;;;;;6.28;5.75;;;16.80;99.90;;;;;;5096611;28;20750;-72
2022/07/31 07:54:27;;;;;;;8.65;6.45;;;16.80;99.90;;;;;;5103567;27;20211;-73
2022/07/31 07:57:48;;;;;;;7.22;6.63;;;16.80;99.90;;;;;;5079808;28;20215;-73
2022/07/31 08:01:02;;;;;;;7.22;6.63;;;16.90;99.90;;;;;;5098052;27;20234;-71
2022/07/31 08:03:52;;;;;;;7.57;6.88;;;17.00;99.90;;;;;;5128159;27;20222;-73
2022/07/31 08:06:41;;;;;;;7.38;6.68;;;17.00;99.90;;;;;;5101890;27;20698;-72
2022/07/31 08:09:30;;;;;;;8.20;7.50;;;17.10;99.90;;;;;;5093771;28;20756;-72
2022/07/31 08:12:37;;;;;;;8.23;6.90;;;17.20;99.90;;;;;;5100985;27;20254;-73
2022/07/31 08:15:46;;;;;;;7.70;6.97;;;17.20;99.90;;;;;;5096098;28;20235;-73
2022/07/31 08:18:45;;;;;;;8.23;7.43;;;17.20;99.90;;;;;;5118235;27;20222;-74
2022/07/31 08:21:36;;;;;;;7.90;7.20;;;17.20;99.90;;;;;;5097549;28;20222;-73
2022/07/31 08:24:24;;;;;;;8.63;7.82;;;17.20;99.90;;;;;;5104498;27;20670;-71
2022/07/31 08:27:26;;;;;;;10.10;9.20;;;17.20;99.90;;;;;;5099468;28;20225;-73
2022/07/31 08:30:27;;;;;;;10.20;9.30;;;17.30;99.90;;;;;;5110540;27;20349;-74
2022/07/31 08:33:18;;;;;;;11.25;10.15;;;17.20;99.90;;;;;;5099019;27;20238;-74
2022/07/31 08:36:14;;;;;;;10.60;9.60;;;17.30;99.90;;;;;;5089815;27;20920;-73
2022/07/31 08:39:05;;;;;;;11.23;10.20;;;17.30;99.90;;;;;;5096037;27;20680;-73
2022/07/31 08:42:09;;;;;;;10.77;9.73;;;17.30;99.90;;;;;;5115452;27;20227;-72
2022/07/31 08:44:57;;;;;;;9.20;8.27;;;17.30;99.90;;;;;;5090951;27;20223;-71
2022/07/31 08:47:50;;;;;;;9.60;8.70;;;17.40;99.90;;;;;;5098382;28;20215;-72
2022/07/31 08:50:46;;;;;;;10.45;8.60;;;17.40;99.90;;;;;;5104267;28;20233;-73
2022/07/31 08:54:10;;;;;;;9.48;8.57;;;17.50;99.90;;;;;;5080674;27;20285;-73
2022/07/31 08:56:59;;;;;;;8.52;7.72;;;17.50;99.90;;;;;;5096495;27;20218;-73
2022/07/31 08:59:51;;;;;;;8.35;7.65;;;17.50;99.90;;;;;;5099280;27;20218;-73
2022/07/31 09:02:40;;;;;;;9.48;8.27;;;17.60;99.90;;;;;;5095692;28;20226;-74
2022/07/31 09:05:47;;;;;;;8.85;7.88;;;17.70;99.90;;;;;;5100414;27;20321;-73
2022/07/31 09:08:37;;;;;;;8.43;7.63;;;17.70;99.90;;;;;;5096989;28;20226;-74
2022/07/31 09:11:29;;;;;;;9.02;8.13;;;17.60;99.90;;;;;;5113087;27;20223;-73
2022/07/31 09:14:48;;;;;;;8.55;7.65;;;17.70;99.90;;;;;;5107364;27;20225;-72
2022/07/31 09:17:37;;;;;;;8.40;7.57;;;17.70;99.90;;;;;;5099578;27;20223;-74
2022/07/31 09:20:28;;;;;;;8.52;7.72;;;17.70;99.90;;;;;;5092968;28;20617;-72
2022/07/31 09:23:18;;;;;;;8.25;7.55;;;17.70;99.90;;;;;;5098939;27;20731;-73
2022/07/31 09:26:08;;;;;;;8.20;7.50;;;17.70;99.90;;;;;;5098339;28;20327;-74
2022/07/31 09:29:01;;;;;;;9.63;7.80;;;17.70;99.90;;;;;;5100988;28;20227;-73
2022/07/31 09:31:50;;;;;;;8.48;7.68;;;17.80;99.90;;;;;;5100320;28;20781;-74
2022/07/31 09:34:47;;;;;;;7.90;7.25;;;17.80;99.90;;;;;;5100979;28;20280;-73
2022/07/31 09:37:39;;;;;;;8.35;7.55;;;17.80;99.90;;;;;;5098186;28;20215;-73
2022/07/31 09:40:43;;;;;;;8.57;7.78;;;17.80;99.90;;;;;;5101716;28;20298;-73
2022/07/31 09:43:54;;;;;;;7.80;7.15;;;18.00;99.90;;;;;;5093719;28;20287;-73
2022/07/31 09:46:48;;;;;;;8.85;8.02;;;17.90;99.90;;;;;;5095342;28;20233;-73
2022/07/31 09:49:37;;;;;;;10.52;8.00;;;18.00;99.90;;;;;;5100689;28;20235;-72
2022/07/31 09:52:28;;;;;;;9.05;8.25;;;18.00;99.90;;;;;;5115759;27;20226;-73
2022/07/31 09:55:16;;;;;;;9.32;8.48;;;18.00;99.90;;;;;;5097362;28;20310;-74
2022/07/31 09:58:06;;;;;;;8.95;8.05;;;17.90;99.90;;;;;;5099891;27;20216;-72
2022/07/31 10:01:01;;;;;;;9.50;8.60;;;17.80;99.90;;;;;;5097466;28;20211;-73
2022/07/31 10:03:53;;;;;;;9.73;8.27;;;17.80;99.90;;;;;;5095321;28;20234;-73
2022/07/31 10:06:43;;;;;;;9.30;8.20;;;17.90;99.90;;;;;;5100743;28;20222;-73
2022/07/31 10:09:33;;;;;;;8.48;7.68;;;17.90;99.90;;;;;;5090066;28;20222;-73
2022/07/31 10:12:33;;;;;;;9.93;7.50;;;17.90;99.90;;;;;;5099587;28;20250;-73
2022/07/31 10:15:25;;;;;;;7.63;6.93;;;17.90;99.90;;;;;;5121256;27;20251;-72
2022/07/31 10:18:50;;;;;;;8.05;7.30;;;17.80;99.90;;;;;;5084070;28;20220;-74
2022/07/31 10:22:00;;;;;;;7.75;7.05;;;17.80;99.90;;;;;;5114872;27;20828;-74
2022/07/31 10:24:53;;;;;;;7.97;7.28;;;17.90;99.90;;;;;;5097512;28;20325;-73
2022/07/31 10:27:42;;;;;;;7.70;7.00;;;17.90;99.90;;;;;;5101121;27;20352;-74
2022/07/31 10:30:37;;;;;;;7.70;6.35;;;17.90;99.90;;;;;;5099335;27;20227;-73
2022/07/31 10:33:26;;;;;;;7.97;7.15;;;18.00;99.90;;;;;;5114359;27;20215;-74
2022/07/31 10:36:54;;;;;;;6.60;6.00;;;17.90;99.90;;;;;;5100321;28;20218;-73
2022/07/31 10:40:20;;;;;;;6.97;6.38;;;17.90;99.90;;;;;;5099899;27;20249;-73
2022/07/31 10:43:19;;;;;;;5.70;5.20;;;17.90;99.90;;;;;;5103004;27;20218;-73
2022/07/31 10:46:28;;;;;;;5.65;5.10;;;17.90;99.90;;;;;;5106432;27;20227;-73
2022/07/31 10:49:40;;;;;;;4.97;4.25;;;17.90;99.90;;;;;;5101636;27;20268;-73
2022/07/31 10:53:08;;;;;;;5.03;4.50;;;18.00;99.90;;;;;;5100147;27;20268;-74
2022/07/31 10:56:18;;;;;;;6.53;4.10;;;18.00;99.90;;;;;;5099190;27;20801;-74
2022/07/31 10:59:28;;;;;;;5.95;4.25;;;18.00;99.90;;;;;;5100881;27;20219;-73
2022/07/31 11:02:31;;;;;;;5.88;4.55;;;18.00;99.90;;;;;;5105085;27;20267;-72
2022/07/31 11:05:36;;;;;;;4.70;4.15;;;18.10;99.90;;;;;;5098681;28;20215;-72
2022/07/31 11:09:03;;;;;;;5.82;4.60;;;18.10;99.90;;;;;;5098023;27;20221;-72
2022/07/31 11:12:19;;;;;;;5.30;4.70;;;18.00;99.90;;;;;;5093199;28;20229;-72
2022/07/31 11:15:29;;;;;;;4.90;4.47;;;18.00;99.90;;;;;;5121121;27;20220;-72
2022/07/31 11:18:36;;;;;;;5.43;4.93;;;17.90;99.90;;;;;;5102514;27;20226;-73
2022/07/31 11:21:33;;;;;;;5.22;4.70;;;17.90;99.90;;;;;;5104002;27;20222;-73
2022/07/31 11:24:27;;;;;;;6.07;4.78;;;17.90;99.90;;;;;;5098527;27;20211;-71
2022/07/31 11:27:15;;;;;;;5.13;4.60;;;18.10;99.90;;;;;;5100173;27;20309;-74
2022/07/31 11:30:08;;;;;;;4.75;4.35;;;18.10;99.90;;;;;;5097518;27;20255;-72
2022/07/31 11:33:01;;;;;;;5.40;4.90;;;18.20;99.90;;;;;;5102949;28;20311;-73
2022/07/31 11:35:50;;;;;;;6.50;4.60;;;18.20;99.90;;;;;;5104517;27;20213;-73
2022/07/31 11:38:41;;;;;;;5.68;4.85;;;18.20;99.90;;;;;;5097904;27;20222;-73
2022/07/31 11:41:31;;;;;;;5.68;4.60;;;18.30;99.90;;;;;;5100262;27;20326;-72
2022/07/31 11:44:32;;;;;;;5.57;4.50;;;18.40;99.90;;;;;;5101142;27;20863;-72
2022/07/31 11:47:21;;;;;;;5.80;4.50;;;18.30;99.90;;;;;;5096633;27;20243;-73
2022/07/31 11:50:39;;;;;;;4.28;3.90;;;18.40;99.90;;;;;;5100114;28;20203;-72
2022/07/31 11:53:28;;;;;;;4.78;4.25;;;18.40;99.90;;;;;;5100738;28;20219;-72
2022/07/31 11:56:18;;;;;;;5.90;4.93;;;18.20;99.90;;;;;;5089196;28;20222;-73
2022/07/31 11:59:07;;;;;;;7.82;5.13;;;18.20;99.90;;;;;;5101564;27;20222;-72
2022/07/31 12:02:17;;;;;;;6.10;4.93;;;18.30;99.90;;;;;;5095828;28;20218;-75
2022/07/31 12:05:11;;;;;;;6.10;5.50;;;18.20;99.90;;;;;;5092877;27;20750;-72
2022/07/31 12:08:00;;;;;;;5.97;5.47;;;18.30;99.90;;;;;;5104606;27;20215;-73
2022/07/31 12:10:51;;;;;;;6.90;5.18;;;18.30;99.90;;;;;;5114258;27;20230;-73
2022/07/31 12:13:40;;;;;;;7.47;5.65;;;18.30;99.90;;;;;;5096716;27;20235;-72
2022/07/31 12:16:38;;;;;;;10.38;5.72;;;18.20;99.90;;;;;;5108312;27;20222;-72
2022/07/31 12:19:29;;;;;;;6.70;5.90;;;18.30;99.90;;;;;;5104886;27;20212;-70
2022/07/31 12:22:25;;;;;;;6.25;5.57;;;18.30;99.90;;;;;;5098642;27;20236;-73
2022/07/31 12:25:14;;;;;;;9.25;6.30;;;18.30;99.90;;;;;;5112002;27;20227;-72
2022/07/31 12:28:03;;;;;;;7.40;5.57;;;18.40;99.90;;;;;;5102015;27;20607;-73
2022/07/31 12:30:59;;;;;;;9.07;6.15;;;18.30;99.90;;;;;;5109439;27;20218;-72
2022/07/31 12:33:48;;;;;;;8.27;6.40;;;18.40;99.90;;;;;;5100391;28;20231;-72
2022/07/31 12:36:36;;;;;;;6.63;5.95;;;18.30;99.90;;;;;;5104575;27;20210;-73
2022/07/31 12:39:27;;;;;;;8.98;6.40;;;18.40;99.90;;;;;;5102862;27;20218;-74
2022/07/31 12:42:38;;;;;;;7.47;6.15;;;18.50;99.90;;;;;;5102719;27;20233;-72
2022/07/31 12:45:31;;;;;;;7.50;6.32;;;18.40;99.90;;;;;;5101667;28;20223;-72
2022/07/31 12:48:20;;;;;;;9.40;6.63;;;18.40;99.90;;;;;;5100975;27;20674;-71
2022/07/31 12:51:09;;;;;;;7.90;6.07;;;18.30;99.90;;;;;;5105280;28;20221;-73
2022/07/31 12:53:58;;;;;;;6.38;5.78;;;18.40;99.90;;;;;;5116667;27;20226;-72
2022/07/31 12:56:48;;;;;;;9.32;6.53;;;18.40;99.90;;;;;;5097666;27;20256;-72
2022/07/31 12:59:37;;;;;;;9.48;6.95;;;18.30;99.90;;;;;;5101636;28;20215;-73
2022/07/31 13:02:26;;;;;;;9.23;6.50;;;18.30;99.90;;;;;;5101314;27;20207;-72
2022/07/31 13:05:14;;;;;;;9.23;6.38;;;18.40;99.90;;;;;;5105570;27;20688;-73
2022/07/31 13:08:03;;;;;;;9.48;6.97;;;18.50;99.90;;;;;;5096086;27;20222;-72
2022/07/31 13:10:52;;;;;;;7.70;6.65;;;18.50;99.90;;;;;;5101481;28;20231;-72
2022/07/31 13:13:44;;;;;;;10.65;6.82;;;18.50;99.90;;;;;;5095830;28;20246;-73
2022/07/31 13:16:33;;;;;;;9.88;7.70;;;18.40;99.90;;;;;;5102828;27;20222;-75
2022/07/31 13:19:23;;;;;;;11.95;7.70;;;18.30;99.90;;;;;;5101383;27;20260;-74
2022/07/31 13:22:11;;;;;;;9.55;7.70;;;18.20;99.90;;;;;;5098585;27;20255;-74
2022/07/31 13:25:00;;;;;;;8.07;7.07;;;18.20;99.90;;;;;;5098786;28;20250;-73
2022/07/31 13:27:48;;;;;;;9.23;7.38;;;18.30;99.90;;;;;;5117750;27;20560;-74
2022/07/31 13:30:38;;;;;;;12.05;7.97;;;18.40;99.90;;;;;;5098238;28;20587;-73
2022/07/31 13:33:27;;;;;;;9.95;7.47;;;18.40;99.90;;;;;;5099404;28;20215;-74
2022/07/31 13:36:15;;;;;;;12.65;8.15;;;18.30;99.90;;;;;;5096908;28;20234;-75
2022/07/31 13:39:04;;;;;;;9.70;7.38;;;18.20;99.90;;;;;;5091741;28;20279;-74
2022/07/31 13:41:52;;;;;;;10.25;6.97;;;18.10;99.90;;;;;;5099812;27;20227;-73
2022/07/31 13:44:41;;;;;;;9.88;7.40;;;18.10;99.90;;;;;;5097246;28;20250;-74
2022/07/31 13:47:31;;;;;;;10.88;7.85;;;18.10;99.90;;;;;;5103963;27;20219;-72
2022/07/31 13:50:40;;;;;;;9.77;7.78;;;17.90;99.90;;;;;;5098405;28;20374;-74
2022/07/31 13:53:28;;;;;;;8.48;6.90;;;17.90;99.90;;;;;;5113543;27;20229;-72
2022/07/31 13:56:17;;;;;;;10.63;6.28;;;17.90;99.90;;;;;;5101142;27;20607;-72
2022/07/31 13:59:28;;;;;;;8.57;6.57;;;17.90;99.90;;;;;;5097559;28;20729;-73
2022/07/31 14:02:16;;;;;;;7.82;6.90;;;18.00;99.90;;;;;;5097873;28;21124;-73
2022/07/31 14:05:08;;;;;;;8.18;6.20;;;17.90;99.90;;;;;;5102396;28;20287;-74
2022/07/31 14:07:56;;;;;;;8.55;6.30;;;17.80;99.90;;;;;;5105398;27;20279;-73
2022/07/31 14:11:05;;;;;;;10.18;6.05;;;17.70;99.90;;;;;;5099698;27;20218;-73
2022/07/31 14:14:02;;;;;;;9.18;6.20;;;17.80;99.90;;;;;;5104073;27;20913;-73
2022/07/31 14:16:51;;;;;;;7.35;5.63;;;17.70;99.90;;;;;;5111603;27;20227;-72
2022/07/31 14:19:40;;;;;;;6.80;5.28;;;17.80;99.90;;;;;;5098870;27;20226;-72
2022/07/31 14:22:33;;;;;;;6.88;5.00;;;17.80;99.90;;;;;;5104341;28;20207;-73
2022/07/31 14:25:22;;;;;;;5.40;4.25;;;17.80;99.90;;;;;;5101288;27;20706;-73
2022/07/31 14:28:10;;;;;;;6.45;4.53;;;17.70;99.90;;;;;;5103546;27;20227;-72
2022/07/31 14:30:59;;;;;;;6.35;4.60;;;17.70;99.90;;;;;;5099786;27;20229;-72
2022/07/31 14:33:48;;;;;;;6.00;4.38;;;17.60;99.90;;;;;;5097603;27;20714;-73
2022/07/31 14:36:36;;;;;;;7.47;4.25;;;17.70;99.90;;;;;;5104281;27;20219;-73
2022/07/31 14:39:27;;;;;;;5.53;3.90;;;17.60;99.90;;;;;;5099914;27;20695;-73
2022/07/31 14:42:15;;;;;;;6.68;4.47;;;17.60;99.90;;;;;;5101727;28;20227;-73
2022/07/31 14:45:12;;;;;;;7.13;4.32;;;17.60;99.90;;;;;;5111135;27;20839;-73
2022/07/31 14:48:01;;;;;;;6.28;3.90;;;17.70;99.90;;;;;;5103259;27;20698;-73
2022/07/31 14:50:49;;;;;;;5.03;3.63;;;17.70;99.90;;;;;;5094734;28;20591;-73
2022/07/31 14:53:38;;;;;;;5.28;3.75;;;17.70;99.90;;;;;;5101008;27;20237;-73
2022/07/31 14:56:28;;;;;;;3.97;3.45;;;17.70;99.90;;;;;;5101134;27;20227;-73
2022/07/31 14:59:37;;;;;;;4.80;3.70;;;17.80;99.90;;;;;;5098324;27;20694;-74
2022/07/31 15:02:25;;;;;;;4.63;3.72;;;17.70;99.90;;;;;;5100385;27;20214;-74
2022/07/31 15:05:14;;;;;;;6.45;3.55;;;17.80;99.90;;;;;;5120921;27;20726;-75
2022/07/31 15:08:23;;;;;;;4.80;3.78;;;17.70;99.90;;;;;;5094640;27;20273;-76
2022/07/31 15:11:11;;;;;;;4.47;3.15;;;17.70;99.90;;;;;;5090971;28;20958;-75
2022/07/31 15:14:01;;;;;;;4.25;3.03;;;17.70;99.90;;;;;;5092061;27;20868;-81